Time;durP1;ratioP1;P1;durP2;ratioP2;P2;SDS_P1;SDS_P2;PMS_P1;PMS_P2;Temp;Humidity;BMP_temperature;BMP_pressure;BME280_temperature;BME280_humidity;BME280_pressure;Samples;Min_cycle;Max_cycle;Signal;HPM_P1;HPM_P2
2021/09/28 00:01:19;;;;;;;2.00;1.60;;;14.70;99.90;;;;;;5067960;28;20467;-40
2021/09/28 00:03:51;;;;;;;1.80;1.70;;;14.70;99.90;;;;;;5073338;28;20451;-40
2021/09/28 00:06:23;;;;;;;1.90;1.70;;;14.90;99.90;;;;;;5065887;28;20479;-39
2021/09/28 00:08:54;;;;;;;1.73;1.60;;;15.00;99.90;;;;;;5076728;28;20471;-40
2021/09/28 00:11:25;;;;;;;3.03;2.07;;;15.30;99.90;;;;;;5080279;28;20599;-40
2021/09/28 00:13:56;;;;;;;5.40;1.73;;;15.40;99.90;;;;;;5071275;28;20443;-40
2021/09/28 00:16:27;;;;;;;1.50;1.40;;;15.50;99.90;;;;;;5081523;28;20490;-39
2021/09/28 00:18:58;;;;;;;1.30;1.20;;;15.60;99.90;;;;;;5065495;28;20456;-40
2021/09/28 00:21:47;;;;;;;2.73;1.80;;;15.50;99.90;;;;;;5071852;28;20501;-40
2021/09/28 00:24:18;;;;;;;5.27;1.83;;;15.40;99.90;;;;;;5070385;28;20459;-40
2021/09/28 00:26:49;;;;;;;2.57;1.80;;;15.30;99.90;;;;;;5078272;28;20507;-41
2021/09/28 00:29:20;;;;;;;2.80;1.43;;;15.30;99.90;;;;;;5066524;28;20449;-40
2021/09/28 00:31:51;;;;;;;2.03;1.40;;;15.30;99.90;;;;;;5077294;28;20534;-41
2021/09/28 00:34:22;;;;;;;2.40;1.63;;;15.20;99.90;;;;;;5079096;28;20452;-40
2021/09/28 00:36:55;;;;;;;1.93;1.47;;;15.30;99.90;;;;;;5079674;28;20456;-40
2021/09/28 00:39:26;;;;;;;1.70;1.60;;;15.20;99.90;;;;;;5071199;28;20462;-40
2021/09/28 00:41:57;;;;;;;2.70;2.00;;;15.10;99.90;;;;;;5074042;28;20528;-40
2021/09/28 00:44:38;;;;;;;2.07;1.97;;;15.20;99.90;;;;;;5082058;28;20440;-41
2021/09/28 00:47:10;;;;;;;2.60;2.33;;;15.20;99.90;;;;;;5081412;28;20451;-40
2021/09/28 00:49:42;;;;;;;3.03;1.70;;;15.10;99.90;;;;;;5070986;28;20448;-40
2021/09/28 00:52:17;;;;;;;2.93;1.60;;;15.10;99.90;;;;;;5082018;28;20452;-40
2021/09/28 00:54:49;;;;;;;4.40;1.83;;;15.00;99.90;;;;;;5069043;28;20452;-40
2021/09/28 00:57:21;;;;;;;3.53;2.60;;;15.10;99.90;;;;;;5072419;28;20462;-40
2021/09/28 00:59:52;;;;;;;1.90;1.80;;;15.00;99.90;;;;;;5067811;28;20452;-40
2021/09/28 01:02:24;;;;;;;3.07;2.20;;;15.00;99.90;;;;;;5060557;28;20479;-39
2021/09/28 01:04:55;;;;;;;2.43;1.80;;;15.00;99.90;;;;;;5078451;28;20497;-40
2021/09/28 01:07:28;;;;;;;2.40;1.53;;;14.80;99.90;;;;;;5085154;28;20446;-40
2021/09/28 01:09:59;;;;;;;2.43;1.40;;;14.90;99.90;;;;;;5085069;28;20896;-40
2021/09/28 01:12:30;;;;;;;2.57;1.57;;;14.80;99.90;;;;;;5084826;28;20447;-41
2021/09/28 01:15:02;;;;;;;5.03;1.87;;;14.70;99.90;;;;;;5085851;28;20432;-41
2021/09/28 01:17:32;;;;;;;4.20;2.17;;;14.70;99.90;;;;;;5069450;28;20456;-39
2021/09/28 01:20:05;;;;;;;2.90;2.10;;;14.60;99.90;;;;;;5065542;28;20525;-40
2021/09/28 01:22:38;;;;;;;3.23;1.90;;;14.60;99.90;;;;;;5085173;28;20466;-40
2021/09/28 01:25:09;;;;;;;2.37;1.87;;;14.60;99.90;;;;;;5067029;28;20456;-40
2021/09/28 01:27:41;;;;;;;3.47;2.17;;;14.60;99.90;;;;;;5065097;28;20470;-41
2021/09/28 01:30:13;;;;;;;2.97;1.93;;;14.60;99.90;;;;;;5065419;28;20445;-40
2021/09/28 01:32:44;;;;;;;3.13;2.30;;;14.60;99.90;;;;;;5064130;28;20512;-40
2021/09/28 01:35:15;;;;;;;6.13;2.30;;;14.50;99.90;;;;;;5064648;28;21162;-40
2021/09/28 01:37:48;;;;;;;2.07;1.97;;;14.40;99.90;;;;;;5064781;28;20452;-39
2021/09/28 01:40:19;;;;;;;2.20;1.93;;;14.40;99.90;;;;;;5066539;28;20495;-40
2021/09/28 01:42:50;;;;;;;2.63;2.33;;;14.40;99.90;;;;;;5085023;28;20448;-40
2021/09/28 01:45:21;;;;;;;5.17;2.40;;;14.30;99.90;;;;;;5082565;28;20541;-40
2021/09/28 01:47:52;;;;;;;2.60;2.40;;;14.30;99.90;;;;;;5084182;28;20479;-40
2021/09/28 01:50:23;;;;;;;4.43;2.20;;;14.30;99.90;;;;;;5080705;28;20458;-40
2021/09/28 01:52:55;;;;;;;2.33;2.13;;;14.30;99.90;;;;;;5084193;28;20474;-40
2021/09/28 01:55:27;;;;;;;2.80;2.20;;;14.30;99.90;;;;;;5065193;28;20499;-40
2021/09/28 01:57:58;;;;;;;3.97;2.07;;;14.20;99.90;;;;;;5084285;28;20490;-40
2021/09/28 02:00:29;;;;;;;4.43;2.00;;;14.10;99.90;;;;;;5084738;28;20474;-40
2021/09/28 02:03:01;;;;;;;3.50;2.20;;;14.10;99.90;;;;;;5083819;28;20483;-40
2021/09/28 02:05:32;;;;;;;2.80;1.90;;;14.10;99.90;;;;;;5084969;28;20507;-40
2021/09/28 02:08:05;;;;;;;1.87;1.63;;;14.10;99.90;;;;;;5084714;28;20478;-41
2021/09/28 02:10:36;;;;;;;2.63;1.77;;;14.10;99.90;;;;;;5084535;28;20539;-41
2021/09/28 02:13:07;;;;;;;2.80;2.07;;;14.10;99.90;;;;;;5082903;28;20493;-41
2021/09/28 02:15:38;;;;;;;2.40;2.20;;;14.00;99.90;;;;;;5083757;28;20513;-41
2021/09/28 02:18:10;;;;;;;3.13;2.27;;;14.00;99.90;;;;;;5083858;28;20448;-41
2021/09/28 02:20:41;;;;;;;3.90;2.60;;;14.00;99.90;;;;;;5084166;28;20766;-41
2021/09/28 02:23:13;;;;;;;2.13;1.90;;;13.90;99.90;;;;;;5082930;28;20456;-41
2021/09/28 02:25:44;;;;;;;2.77;1.80;;;14.00;99.90;;;;;;5067775;28;20460;-41
2021/09/28 02:28:15;;;;;;;3.37;2.00;;;14.00;99.90;;;;;;5066758;28;20460;-41
2021/09/28 02:30:46;;;;;;;2.53;2.23;;;13.90;99.90;;;;;;5073136;28;20475;-41
2021/09/28 02:33:17;;;;;;;3.10;2.10;;;13.80;99.90;;;;;;5067791;28;20452;-41
2021/09/28 02:35:48;;;;;;;1.97;1.77;;;13.70;99.90;;;;;;5070614;28;20475;-42
2021/09/28 02:38:21;;;;;;;2.27;1.77;;;13.60;99.90;;;;;;5084244;28;20459;-40
2021/09/28 02:40:52;;;;;;;2.20;1.97;;;13.50;99.90;;;;;;5084016;28;20938;-40
2021/09/28 02:43:25;;;;;;;3.53;1.63;;;13.50;99.90;;;;;;5071147;28;20571;-40
2021/09/28 02:45:59;;;;;;;2.23;2.03;;;13.50;99.90;;;;;;5083636;28;20479;-40
2021/09/28 02:48:30;;;;;;;3.57;2.33;;;13.40;99.90;;;;;;5083518;28;20459;-41
2021/09/28 02:51:01;;;;;;;3.93;2.20;;;13.40;99.90;;;;;;5083579;28;20452;-41
2021/09/28 02:53:34;;;;;;;2.00;1.90;;;13.30;99.90;;;;;;5076627;28;20456;-40
2021/09/28 02:56:05;;;;;;;2.83;2.33;;;13.40;99.90;;;;;;5070129;28;20494;-40
2021/09/28 02:58:36;;;;;;;4.13;2.73;;;13.30;99.90;;;;;;5083894;28;20467;-41
2021/09/28 03:01:07;;;;;;;3.07;2.77;;;13.30;99.90;;;;;;5083078;28;20490;-41
2021/09/28 03:03:39;;;;;;;3.00;2.40;;;13.20;99.90;;;;;;5083321;28;20451;-40
2021/09/28 03:06:10;;;;;;;3.57;2.57;;;13.20;99.90;;;;;;5083804;28;20477;-40
2021/09/28 03:08:43;;;;;;;2.47;2.27;;;13.10;99.90;;;;;;5083850;28;20447;-41
2021/09/28 03:11:17;;;;;;;3.30;3.00;;;13.00;99.90;;;;;;5083255;28;20447;-41
2021/09/28 03:13:47;;;;;;;3.00;2.80;;;13.00;99.90;;;;;;5083986;28;20474;-41
2021/09/28 03:16:21;;;;;;;4.10;3.10;;;13.00;99.90;;;;;;5067682;28;20480;-41
2021/09/28 03:18:53;;;;;;;6.47;3.10;;;13.00;99.90;;;;;;5065487;28;20509;-41
2021/09/28 03:21:24;;;;;;;3.73;2.93;;;13.00;99.90;;;;;;5062770;28;20837;-40
2021/09/28 03:23:56;;;;;;;4.07;3.17;;;13.00;99.90;;;;;;5071550;28;20471;-41
2021/09/28 03:26:28;;;;;;;4.07;3.10;;;13.10;99.90;;;;;;5081006;28;20479;-40
2021/09/28 03:28:59;;;;;;;3.87;3.03;;;13.10;99.90;;;;;;5075323;28;20575;-40
2021/09/28 03:31:29;;;;;;;3.63;3.27;;;13.10;99.90;;;;;;5076506;28;20479;-40
2021/09/28 03:34:00;;;;;;;6.47;3.50;;;13.00;99.90;;;;;;5073825;28;20472;-39
2021/09/28 03:36:32;;;;;;;3.23;2.93;;;13.00;99.90;;;;;;5066385;28;20529;-40
2021/09/28 03:39:05;;;;;;;6.37;3.50;;;13.00;99.90;;;;;;5080902;28;20455;-40
2021/09/28 03:41:36;;;;;;;4.43;3.10;;;12.90;99.90;;;;;;5074994;28;20440;-41
2021/09/28 03:44:07;;;;;;;5.77;3.40;;;12.90;99.90;;;;;;5078672;28;20463;-41
2021/09/28 03:46:38;;;;;;;7.83;4.10;;;12.90;99.90;;;;;;5079959;28;20458;-41
2021/09/28 03:49:09;;;;;;;3.93;3.53;;;12.90;99.90;;;;;;5075813;28;20448;-41
2021/09/28 03:51:40;;;;;;;6.13;3.07;;;12.90;99.90;;;;;;5074429;28;20546;-41
2021/09/28 03:54:12;;;;;;;5.03;3.73;;;12.80;99.90;;;;;;5077674;28;20455;-41
2021/09/28 03:56:43;;;;;;;4.40;4.00;;;12.90;99.90;;;;;;5073396;28;20563;-42
2021/09/28 03:59:14;;;;;;;4.67;4.17;;;12.80;99.90;;;;;;5083323;28;20439;-41
2021/09/28 04:01:46;;;;;;;5.20;3.77;;;12.80;99.90;;;;;;5076934;28;20938;-41
2021/09/28 04:04:17;;;;;;;6.93;4.80;;;12.80;99.90;;;;;;5071070;28;20562;-41
2021/09/28 04:06:51;;;;;;;5.50;3.93;;;12.80;99.90;;;;;;5083103;28;20455;-41
2021/09/28 04:09:24;;;;;;;4.80;4.30;;;12.80;99.90;;;;;;5072589;28;20939;-41
2021/09/28 04:11:55;;;;;;;4.80;3.73;;;12.80;99.90;;;;;;5080595;28;20629;-42
2021/09/28 04:14:29;;;;;;;4.73;3.40;;;12.70;99.90;;;;;;5070332;28;20463;-41
2021/09/28 04:17:00;;;;;;;3.77;3.40;;;12.70;99.90;;;;;;5080488;28;20505;-41
2021/09/28 04:19:31;;;;;;;5.23;3.67;;;12.70;99.90;;;;;;5076504;28;20468;-41
2021/09/28 04:22:03;;;;;;;4.93;3.67;;;12.60;99.90;;;;;;5062079;28;20466;-41
2021/09/28 04:24:35;;;;;;;5.07;3.43;;;12.60;99.90;;;;;;5067543;28;20962;-41
2021/09/28 04:27:07;;;;;;;4.90;3.67;;;12.70;99.90;;;;;;5062500;28;20511;-42
2021/09/28 04:29:39;;;;;;;3.83;3.40;;;12.60;99.90;;;;;;5078734;28;20483;-41
2021/09/28 04:32:11;;;;;;;6.83;4.30;;;12.70;99.90;;;;;;5081946;28;20590;-41
2021/09/28 04:34:44;;;;;;;5.13;3.40;;;12.70;99.90;;;;;;5077888;28;20444;-42
2021/09/28 04:37:15;;;;;;;4.17;3.20;;;12.70;99.90;;;;;;5082213;28;20498;-41
2021/09/28 04:39:48;;;;;;;3.50;3.20;;;12.60;99.90;;;;;;5069128;28;20452;-41
2021/09/28 04:42:19;;;;;;;5.13;3.50;;;12.60;99.90;;;;;;5066189;28;20475;-42
2021/09/28 04:44:49;;;;;;;3.70;3.40;;;12.60;99.90;;;;;;5066174;28;20459;-41
2021/09/28 04:47:20;;;;;;;4.60;3.10;;;12.60;99.90;;;;;;5065639;28;20950;-42
2021/09/28 04:49:51;;;;;;;3.50;3.20;;;12.60;99.90;;;;;;5066045;28;20448;-42
2021/09/28 04:52:22;;;;;;;3.97;3.33;;;12.60;99.90;;;;;;5065591;28;20452;-41
2021/09/28 04:54:55;;;;;;;6.33;3.80;;;12.50;99.90;;;;;;5066974;28;20452;-42
2021/09/28 04:57:26;;;;;;;4.53;3.47;;;12.50;99.90;;;;;;5082552;28;20578;-41
2021/09/28 04:59:57;;;;;;;4.33;3.50;;;12.50;99.90;;;;;;5086323;28;20477;-41
2021/09/28 05:02:28;;;;;;;5.90;3.50;;;12.40;99.90;;;;;;5084445;28;20855;-42
2021/09/28 05:05:02;;;;;;;4.70;3.40;;;12.40;99.90;;;;;;5085803;28;20463;-42
2021/09/28 05:07:33;;;;;;;5.13;3.97;;;12.40;99.90;;;;;;5085237;28;20492;-42
2021/09/28 05:10:08;;;;;;;7.17;4.20;;;12.40;99.90;;;;;;5085646;28;20960;-42
2021/09/28 05:12:39;;;;;;;5.97;4.00;;;12.40;99.90;;;;;;5085721;28;20446;-42
2021/09/28 05:15:11;;;;;;;4.30;3.90;;;12.40;99.90;;;;;;5085767;28;20467;-42
2021/09/28 05:17:42;;;;;;;4.37;3.50;;;12.40;99.90;;;;;;5084905;28;20518;-41
2021/09/28 05:20:13;;;;;;;3.27;2.97;;;12.40;99.90;;;;;;5085434;28;20506;-42
2021/09/28 05:22:44;;;;;;;6.23;3.33;;;12.30;99.90;;;;;;5085222;28;20509;-41
2021/09/28 05:25:17;;;;;;;3.43;2.80;;;12.40;99.90;;;;;;5066972;28;20456;-41
2021/09/28 05:27:48;;;;;;;5.77;3.60;;;12.40;99.90;;;;;;5071265;28;20455;-41
2021/09/28 05:30:19;;;;;;;5.57;3.20;;;12.40;99.90;;;;;;5065549;28;20579;-41
2021/09/28 05:32:50;;;;;;;6.77;3.57;;;12.40;99.90;;;;;;5064710;28;20448;-41
2021/09/28 05:35:24;;;;;;;5.50;3.17;;;12.40;99.90;;;;;;5065364;28;20484;-41
2021/09/28 05:37:58;;;;;;;5.00;3.07;;;12.40;99.90;;;;;;5065202;28;20556;-41
2021/09/28 05:40:30;;;;;;;3.60;3.10;;;12.40;99.90;;;;;;5065265;28;20452;-41
2021/09/28 05:43:01;;;;;;;5.23;3.47;;;12.40;99.90;;;;;;5065077;28;20524;-41
2021/09/28 05:45:32;;;;;;;3.93;2.70;;;12.30;99.90;;;;;;5064780;28;20444;-41
2021/09/28 05:48:03;;;;;;;6.83;3.20;;;12.30;99.90;;;;;;5064302;28;20456;-41
2021/09/28 05:50:36;;;;;;;6.87;3.30;;;12.30;99.90;;;;;;5064006;28;20835;-41
2021/09/28 05:53:10;;;;;;;5.13;2.70;;;12.20;99.90;;;;;;5065763;28;20459;-40
2021/09/28 05:55:44;;;;;;;5.77;2.80;;;12.20;99.90;;;;;;5084745;28;20451;-41
2021/09/28 05:58:16;;;;;;;3.70;2.57;;;12.20;99.90;;;;;;5084861;28;20543;-42
2021/09/28 06:00:47;;;;;;;5.23;3.17;;;12.10;99.90;;;;;;5066759;28;20459;-41
2021/09/28 06:03:19;;;;;;;6.77;2.70;;;12.10;99.90;;;;;;5063566;28;20957;-41
2021/09/28 06:05:53;;;;;;;10.40;3.93;;;12.10;99.90;;;;;;5064896;28;20444;-41
2021/09/28 06:08:24;;;;;;;8.60;3.20;;;12.00;99.90;;;;;;5064616;28;20456;-41
2021/09/28 06:10:56;;;;;;;3.10;2.80;;;12.00;99.90;;;;;;5064643;28;20492;-41
2021/09/28 06:13:27;;;;;;;7.80;3.03;;;12.00;99.90;;;;;;5068466;28;20596;-41
2021/09/28 06:15:59;;;;;;;3.50;2.83;;;12.00;99.90;;;;;;5084582;28;20447;-41
2021/09/28 06:18:30;;;;;;;4.93;3.50;;;12.00;99.90;;;;;;5083826;28;20536;-41
2021/09/28 06:21:01;;;;;;;5.03;3.77;;;12.00;99.90;;;;;;5084370;28;20539;-41
2021/09/28 06:23:32;;;;;;;6.80;3.90;;;12.00;99.90;;;;;;5078862;28;20806;-41
2021/09/28 06:26:05;;;;;;;6.17;4.73;;;12.00;99.90;;;;;;5064384;28;20613;-41
2021/09/28 06:28:39;;;;;;;5.77;5.17;;;12.00;99.90;;;;;;5081834;28;20475;-41
2021/09/28 06:31:10;;;;;;;5.30;4.30;;;11.90;99.90;;;;;;5084091;28;20931;-41
2021/09/28 06:33:41;;;;;;;9.03;4.97;;;11.90;99.90;;;;;;5070219;28;20484;-42
2021/09/28 06:36:12;;;;;;;6.67;3.53;;;11.90;99.90;;;;;;5063563;28;20456;-42
2021/09/28 06:38:43;;;;;;;6.37;3.83;;;11.90;99.90;;;;;;5064190;28;20527;-42
2021/09/28 06:41:16;;;;;;;5.87;4.37;;;11.80;99.90;;;;;;5064007;28;20449;-41
2021/09/28 06:43:49;;;;;;;6.23;3.47;;;11.80;99.90;;;;;;5064209;28;20471;-40
2021/09/28 06:46:20;;;;;;;7.20;3.93;;;11.80;99.90;;;;;;5063279;28;20988;-42
2021/09/28 06:48:51;;;;;;;3.27;2.90;;;11.90;99.90;;;;;;5063784;28;20471;-42
2021/09/28 06:51:22;;;;;;;6.10;4.00;;;12.00;99.90;;;;;;5063754;28;20476;-42
2021/09/28 06:53:55;;;;;;;5.73;3.30;;;12.10;99.90;;;;;;5065297;28;20823;-42
2021/09/28 06:56:28;;;;;;;4.30;3.23;;;12.10;99.90;;;;;;5071989;28;20466;-42
2021/09/28 06:58:59;;;;;;;5.10;3.80;;;12.20;99.90;;;;;;5084075;28;20510;-42
2021/09/28 07:01:30;;;;;;;3.70;3.40;;;12.30;99.90;;;;;;5081871;28;20506;-42
2021/09/28 07:04:02;;;;;;;5.77;2.70;;;12.30;99.90;;;;;;5082963;28;20443;-42
2021/09/28 07:06:33;;;;;;;7.83;3.40;;;12.40;99.90;;;;;;5083515;28;20447;-41
2021/09/28 07:09:05;;;;;;;5.13;2.80;;;12.40;99.90;;;;;;5083565;28;20486;-41
2021/09/28 07:11:38;;;;;;;5.63;2.80;;;12.40;99.90;;;;;;5083482;28;20447;-41
2021/09/28 07:14:08;;;;;;;5.70;2.83;;;12.40;99.90;;;;;;5083581;28;20490;-41
2021/09/28 07:16:39;;;;;;;3.93;2.50;;;12.50;99.90;;;;;;5082632;28;20779;-41
2021/09/28 07:19:11;;;;;;;8.80;3.20;;;12.60;99.90;;;;;;5083075;28;20865;-41
2021/09/28 07:21:42;;;;;;;6.13;3.30;;;12.50;99.90;;;;;;5083197;28;20474;-40
2021/09/28 07:24:13;;;;;;;4.73;3.07;;;12.50;99.90;;;;;;5081003;28;20443;-41
2021/09/28 07:26:45;;;;;;;3.57;2.87;;;12.50;99.90;;;;;;5083180;28;20440;-41
2021/09/28 07:29:16;;;;;;;5.23;2.50;;;12.70;99.90;;;;;;5068452;28;20757;-41
2021/09/28 07:31:47;;;;;;;7.07;2.57;;;12.60;99.90;;;;;;5062391;28;20829;-41
2021/09/28 07:34:19;;;;;;;5.10;3.13;;;12.60;99.90;;;;;;5063334;28;20452;-41
2021/09/28 07:36:50;;;;;;;3.80;2.30;;;12.60;99.90;;;;;;5062935;28;20447;-41
2021/09/28 07:39:21;;;;;;;7.37;3.53;;;12.60;99.90;;;;;;5062698;28;20514;-41
2021/09/28 07:41:56;;;;;;;6.10;3.20;;;12.60;99.90;;;;;;5062891;28;20900;-40
2021/09/28 07:44:27;;;;;;;7.63;3.23;;;12.60;99.90;;;;;;5063048;28;20494;-41
2021/09/28 07:46:58;;;;;;;8.03;3.10;;;12.70;99.90;;;;;;5061847;28;20590;-41
2021/09/28 07:49:31;;;;;;;6.63;3.00;;;12.60;99.90;;;;;;5062534;28;20527;-41
2021/09/28 07:52:02;;;;;;;4.87;2.90;;;12.70;99.90;;;;;;5062716;28;20471;-41
2021/09/28 07:54:34;;;;;;;7.10;3.13;;;12.70;99.90;;;;;;5063721;28;20475;-41
2021/09/28 07:57:08;;;;;;;5.67;3.20;;;12.60;99.90;;;;;;5076435;28;20435;-40
2021/09/28 07:59:39;;;;;;;9.43;3.00;;;12.60;99.90;;;;;;5083012;28;21031;-41
2021/09/28 08:02:10;;;;;;;3.50;2.90;;;12.60;99.90;;;;;;5081168;28;20552;-41
2021/09/28 08:04:41;;;;;;;5.90;2.70;;;12.60;99.90;;;;;;5081892;28;20443;-41
2021/09/28 08:07:13;;;;;;;6.67;2.63;;;12.60;99.90;;;;;;5082500;28;20761;-41
2021/09/28 08:09:43;;;;;;;6.50;3.20;;;12.50;99.90;;;;;;5082870;28;20904;-41
2021/09/28 08:12:16;;;;;;;4.73;2.83;;;12.50;99.90;;;;;;5082590;28;20444;-41
2021/09/28 08:14:50;;;;;;;4.27;2.73;;;12.60;99.90;;;;;;5082042;28;20520;-41
2021/09/28 08:17:22;;;;;;;10.57;2.60;;;12.60;99.90;;;;;;5081757;28;20463;-41
2021/09/28 08:19:54;;;;;;;9.43;3.17;;;12.50;99.90;;;;;;5082548;28;20519;-41
2021/09/28 08:22:28;;;;;;;3.67;2.80;;;12.50;99.90;;;;;;5082619;28;20475;-41
2021/09/28 08:25:07;;;;;;;4.90;2.40;;;12.50;99.90;;;;;;5081022;28;20483;-41
2021/09/28 08:30:28;;;;;;;6.33;3.30;;;12.60;99.90;;;;;;5068058;28;20441;-41
2021/09/28 08:33:01;;;;;;;3.97;3.00;;;12.50;99.90;;;;;;5061853;28;20513;-41
2021/09/28 08:35:32;;;;;;;3.83;2.77;;;12.50;99.90;;;;;;5075286;28;20478;-41
2021/09/28 08:38:03;;;;;;;7.93;3.10;;;12.50;99.90;;;;;;5082221;28;20447;-41
2021/09/28 08:40:35;;;;;;;5.60;2.53;;;12.50;99.90;;;;;;5081891;28;20505;-41
2021/09/28 08:43:07;;;;;;;7.40;3.13;;;12.50;99.90;;;;;;5082076;28;20447;-41
2021/09/28 08:45:38;;;;;;;6.80;2.60;;;12.50;99.90;;;;;;5081504;28;20443;-41
2021/09/28 08:48:13;;;;;;;7.20;2.77;;;12.50;99.90;;;;;;5081697;28;20435;-41
2021/09/28 08:50:48;;;;;;;5.10;3.00;;;12.60;99.90;;;;;;5082168;28;20451;-41
2021/09/28 08:53:19;;;;;;;4.60;2.90;;;12.60;99.90;;;;;;5079441;28;20953;-41
2021/09/28 08:55:53;;;;;;;4.30;2.37;;;12.60;99.90;;;;;;5065085;28;20478;-41
2021/09/28 08:58:28;;;;;;;4.37;2.80;;;12.60;99.90;;;;;;5082195;28;20470;-41
2021/09/28 09:01:07;;;;;;;3.00;2.60;;;12.60;99.90;;;;;;5081837;28;20486;-41
2021/09/28 09:03:38;;;;;;;6.50;2.43;;;12.60;99.90;;;;;;5080538;28;20447;-41
2021/09/28 09:06:09;;;;;;;3.27;1.97;;;12.60;99.90;;;;;;5081768;28;20448;-41
2021/09/28 09:08:40;;;;;;;3.30;2.00;;;12.60;99.90;;;;;;5081741;28;20451;-41
2021/09/28 09:11:13;;;;;;;2.47;1.83;;;12.60;99.90;;;;;;5081897;28;20486;-41
2021/09/28 09:13:49;;;;;;;3.07;2.23;;;12.60;99.90;;;;;;5082157;28;20842;-41
2021/09/28 09:16:21;;;;;;;6.33;2.23;;;12.50;99.90;;;;;;5081085;28;20461;-41
2021/09/28 09:19:12;;;;;;;7.80;3.10;;;12.50;99.90;;;;;;5081897;28;20518;-41
2021/09/28 09:21:48;;;;;;;2.67;2.10;;;12.50;99.90;;;;;;5082153;28;20447;-41
2021/09/28 09:24:46;;;;;;;2.80;2.20;;;12.50;99.90;;;;;;5080518;28;20455;-41
2021/09/28 09:27:19;;;;;;;4.63;2.40;;;12.50;99.90;;;;;;5085056;28;20805;-41
2021/09/28 09:30:11;;;;;;;4.30;1.97;;;12.50;99.90;;;;;;5065909;28;21066;-41
2021/09/28 09:32:49;;;;;;;3.07;1.83;;;12.50;99.90;;;;;;5064406;28;20471;-41
2021/09/28 09:35:25;;;;;;;4.70;2.00;;;12.50;99.90;;;;;;5064838;28;20472;-41
2021/09/28 09:38:07;;;;;;;2.87;1.90;;;12.40;99.90;;;;;;5065331;28;20448;-41
2021/09/28 09:40:39;;;;;;;3.33;1.90;;;12.40;99.90;;;;;;5065180;28;20523;-41
2021/09/28 09:43:13;;;;;;;4.40;1.90;;;12.40;99.90;;;;;;5066537;28;20452;-41
2021/09/28 09:45:46;;;;;;;3.53;2.10;;;12.40;99.90;;;;;;5065144;28;20551;-41
2021/09/28 09:48:27;;;;;;;2.07;1.60;;;12.40;99.90;;;;;;5064330;28;20490;-41
2021/09/28 09:51:03;;;;;;;4.57;2.03;;;12.40;99.90;;;;;;5065252;28;20525;-40
2021/09/28 09:53:36;;;;;;;2.47;1.53;;;12.40;99.90;;;;;;5069692;28;20757;-41
2021/09/28 09:56:07;;;;;;;4.40;2.10;;;12.40;99.90;;;;;;5079109;28;20471;-41
2021/09/28 09:58:38;;;;;;;3.43;1.77;;;12.30;99.90;;;;;;5085182;28;20935;-40
2021/09/28 10:01:11;;;;;;;3.73;2.20;;;12.30;99.90;;;;;;5084982;28;20537;-41
2021/09/28 10:03:43;;;;;;;2.47;1.63;;;12.40;99.90;;;;;;5084657;28;20506;-41
2021/09/28 10:06:14;;;;;;;5.53;1.90;;;12.40;99.90;;;;;;5084946;28;20458;-41
2021/09/28 10:08:45;;;;;;;3.33;2.10;;;12.30;99.90;;;;;;5085329;28;20516;-41
2021/09/28 10:11:17;;;;;;;9.33;2.80;;;12.20;99.90;;;;;;5079955;28;20998;-41
2021/09/28 10:13:51;;;;;;;3.00;1.80;;;12.20;99.90;;;;;;5065079;28;20515;-41
2021/09/28 10:16:40;;;;;;;2.73;2.17;;;12.20;99.90;;;;;;5064336;28;20445;-41
2021/09/28 10:19:48;;;;;;;4.23;2.10;;;12.20;99.90;;;;;;5064502;28;20479;-41
2021/09/28 10:22:53;;;;;;;2.83;2.13;;;12.20;99.90;;;;;;5064955;28;20465;-41
2021/09/28 10:25:38;;;;;;;2.97;2.47;;;12.20;99.90;;;;;;5055704;28;20460;-40
2021/09/28 10:28:44;;;;;;;4.53;2.30;;;12.20;99.90;;;;;;5064180;28;20468;-41
2021/09/28 10:31:32;;;;;;;4.70;3.20;;;12.20;99.90;;;;;;5064080;28;20475;-41
2021/09/28 10:34:05;;;;;;;4.80;2.97;;;12.10;99.90;;;;;;5063757;28;20475;-41
2021/09/28 10:36:52;;;;;;;4.47;2.43;;;12.10;99.90;;;;;;5063563;28;20456;-41
2021/09/28 10:39:43;;;;;;;3.47;3.10;;;12.10;99.90;;;;;;5070723;28;20533;-41
2021/09/28 10:42:34;;;;;;;8.33;3.07;;;12.10;99.90;;;;;;5084070;28;20451;-41
2021/09/28 10:45:05;;;;;;;7.80;3.20;;;12.20;99.90;;;;;;5082336;28;20487;-41
2021/09/28 10:47:49;;;;;;;6.47;3.00;;;12.20;99.90;;;;;;5082960;28;20448;-41
2021/09/28 10:50:32;;;;;;;5.03;3.17;;;12.20;99.90;;;;;;5083613;28;20459;-41
2021/09/28 10:53:05;;;;;;;8.23;3.63;;;12.20;99.90;;;;;;5083914;28;20495;-40
2021/09/28 10:55:41;;;;;;;4.93;4.23;;;12.20;99.90;;;;;;5065568;28;20459;-40
2021/09/28 10:58:20;;;;;;;12.20;6.67;;;12.10;99.90;;;;;;5083738;28;21001;-41
2021/09/28 11:01:12;;;;;;;8.63;7.60;;;12.10;99.90;;;;;;5083481;28;20486;-41
2021/09/28 11:04:21;;;;;;;15.57;10.70;;;12.00;99.90;;;;;;5083132;28;20813;-40
2021/09/28 11:07:00;;;;;;;14.57;12.07;;;12.00;99.90;;;;;;5082680;28;20822;-41
2021/09/28 11:09:53;;;;;;;9.93;7.70;;;12.00;99.90;;;;;;5083688;28;20484;-40
2021/09/28 11:12:26;;;;;;;10.23;5.60;;;12.00;99.90;;;;;;5083594;28;20479;-40
2021/09/28 11:15:01;;;;;;;5.90;3.93;;;12.00;99.90;;;;;;5083564;28;20770;-41
2021/09/28 11:17:36;;;;;;;3.97;3.67;;;12.00;99.90;;;;;;5082993;28;20500;-41
2021/09/28 11:20:19;;;;;;;2.90;2.60;;;12.00;99.90;;;;;;5083330;28;20475;-40
2021/09/28 11:22:57;;;;;;;4.63;3.30;;;12.10;99.90;;;;;;5083175;28;20451;-41
2021/09/28 11:25:30;;;;;;;3.10;2.80;;;12.10;99.90;;;;;;5083237;28;20483;-41
2021/09/28 11:28:04;;;;;;;3.07;2.33;;;12.10;99.90;;;;;;5082795;28;20529;-40
2021/09/28 11:30:37;;;;;;;3.23;2.40;;;12.20;99.90;;;;;;5064808;28;20457;-40
2021/09/28 11:33:09;;;;;;;6.17;2.10;;;12.10;99.90;;;;;;5062285;28;20457;-41
2021/09/28 11:35:56;;;;;;;7.63;2.23;;;12.10;99.90;;;;;;5063351;28;20452;-40
2021/09/28 11:38:31;;;;;;;6.90;3.50;;;12.10;99.90;;;;;;5063084;28;20440;-41
2021/09/28 11:41:06;;;;;;;3.83;2.20;;;12.00;99.90;;;;;;5062791;28;20503;-41
2021/09/28 11:43:37;;;;;;;6.37;3.00;;;12.00;99.90;;;;;;5073867;28;20462;-40
2021/09/28 11:46:11;;;;;;;5.32;2.30;;;12.00;99.90;;;;;;5065257;28;20463;-40
2021/09/28 11:48:43;;;;;;;4.73;2.57;;;12.00;99.90;;;;;;5079657;28;20264;-41
2021/09/28 11:51:17;;;;;;;3.93;2.20;;;12.10;99.90;;;;;;5074452;28;20459;-41
2021/09/28 11:53:54;;;;;;;4.07;2.53;;;12.00;99.90;;;;;;5080043;28;20439;-41
2021/09/28 11:56:29;;;;;;;5.53;2.30;;;11.90;99.90;;;;;;5073932;28;20887;-41
2021/09/28 11:59:01;;;;;;;3.80;1.97;;;11.90;99.90;;;;;;5062479;28;20503;-40
2021/09/28 12:04:33;;;;;;;3.57;2.20;;;11.90;99.90;;;;;;5074784;28;20452;-41
2021/09/28 12:07:08;;;;;;;3.10;2.30;;;11.90;99.90;;;;;;5062648;28;20444;-41
2021/09/28 12:09:58;;;;;;;2.57;2.37;;;11.90;99.90;;;;;;5062549;28;20440;-41
2021/09/28 12:12:39;;;;;;;3.20;2.80;;;11.90;99.90;;;;;;5081766;28;20520;-41
2021/09/28 12:15:12;;;;;;;3.87;2.67;;;11.90;99.90;;;;;;5071564;28;20487;-41
2021/09/28 12:17:46;;;;;;;6.10;2.40;;;11.90;99.90;;;;;;5061864;28;20456;-41
2021/09/28 12:20:19;;;;;;;5.97;2.60;;;11.90;99.90;;;;;;5062998;28;20955;-40
2021/09/28 12:22:52;;;;;;;6.57;3.17;;;12.00;99.90;;;;;;5074064;28;20556;-41
2021/09/28 12:25:30;;;;;;;4.03;2.90;;;12.00;99.90;;;;;;5062667;28;21020;-40
2021/09/28 12:28:04;;;;;;;7.00;3.27;;;12.00;99.90;;;;;;5062162;28;20455;-41
2021/09/28 12:30:49;;;;;;;5.03;3.00;;;12.00;99.90;;;;;;5063385;28;20505;-41
2021/09/28 12:33:20;;;;;;;3.57;2.50;;;12.00;99.90;;;;;;5061857;28;20484;-41
2021/09/28 12:35:54;;;;;;;5.07;2.80;;;12.00;99.90;;;;;;5075444;28;20487;-41
2021/09/28 12:38:25;;;;;;;2.40;2.20;;;12.00;99.90;;;;;;5080943;28;20486;-41
2021/09/28 12:41:06;;;;;;;3.80;2.60;;;12.00;99.90;;;;;;5062179;28;20459;-41
2021/09/28 12:43:37;;;;;;;4.13;2.20;;;12.00;99.90;;;;;;5076626;28;20447;-41
2021/09/28 12:46:09;;;;;;;3.77;2.50;;;12.00;99.90;;;;;;5062357;28;20473;-40
2021/09/28 12:48:42;;;;;;;4.47;3.10;;;12.10;99.90;;;;;;5075003;28;20465;-41
2021/09/28 12:51:16;;;;;;;7.27;2.83;;;12.00;99.90;;;;;;5067826;28;20463;-41
2021/09/28 12:53:48;;;;;;;3.00;1.80;;;12.10;99.90;;;;;;5073651;28;20447;-41
2021/09/28 12:56:20;;;;;;;5.10;2.50;;;12.10;99.90;;;;;;5069575;28;20518;-41
2021/09/28 12:58:51;;;;;;;3.93;3.50;;;12.10;99.90;;;;;;5081865;28;20452;-41
2021/09/28 13:01:45;;;;;;;8.43;2.40;;;12.10;99.90;;;;;;5084430;28;20510;-40
2021/09/28 13:04:17;;;;;;;7.70;2.13;;;12.10;99.90;;;;;;5066185;28;20458;-41
2021/09/28 13:06:54;;;;;;;6.13;2.40;;;12.10;99.90;;;;;;5066059;28;20455;-41
2021/09/28 13:09:25;;;;;;;3.83;3.37;;;12.10;99.90;;;;;;5066719;28;20453;-41
2021/09/28 13:11:58;;;;;;;5.83;2.50;;;12.20;99.90;;;;;;5066960;28;20452;-41
2021/09/28 13:14:30;;;;;;;2.00;1.90;;;12.20;99.90;;;;;;5066102;28;20924;-41
2021/09/28 13:17:02;;;;;;;4.73;2.50;;;12.20;99.90;;;;;;5082827;28;20519;-41
2021/09/28 13:19:33;;;;;;;3.90;2.33;;;12.10;99.90;;;;;;5083704;28;20451;-41
2021/09/28 13:22:04;;;;;;;5.13;2.33;;;12.10;99.90;;;;;;5077230;28;20479;-41
2021/09/28 13:24:35;;;;;;;5.63;2.50;;;12.20;99.90;;;;;;5070617;28;20575;-41